RYV weather

Watertown Municipal Airport
Watertown, Wisconsin, United States

Public forecast

Using degrees Fahrenheit for public forecast. Weather courtesy of forecast.io.

METAR (pilot weather report)

Retrieved 2019/09/19 03:35 UTC (0 seconds ago):

KRYV 190335Z AUTO 00000KT 7SM CLR 19/19 A3006 RMK AO2 T01910191

TAF (pilot weather forecast)

Forecast is more than 12 hours old.

Closest forecast is Waukesha County Airport, 22.7 nm (42.0 km) ESE. Retrieved 2019/09/18 00:22 UTC (1 day ago):

TAF KUES 182320Z 1900/1924 18008KT P6SM BKN250 FM191200 19009KT P6SM SCT050 BKN150 PROB30 1912/1916 -SHRA BKN040 FM191800 18009KT P6SM SCT050 BKN150